sensor_id;sensor_type;location;lat;lon;timestamp;pressure;altitude;pressure_sealevel;temperature;humidity
34297;BME280;20564;42.902;25.336;2022-11-20T00:01:57;96653.47;;;15.02;100.00
34297;BME280;20564;42.902;25.336;2022-11-20T00:04:24;96648.19;;;15.02;100.00
34297;BME280;20564;42.902;25.336;2022-11-20T00:06:52;96651.69;;;15.17;100.00
34297;BME280;20564;42.902;25.336;2022-11-20T00:09:19;96644.44;;;15.11;100.00
34297;BME280;20564;42.902;25.336;2022-11-20T00:11:47;96645.47;;;15.10;100.00
34297;BME280;20564;42.902;25.336;2022-11-20T00:14:14;96649.47;;;15.06;100.00
34297;BME280;20564;42.902;25.336;2022-11-20T00:16:41;96647.72;;;14.99;100.00
34297;BME280;20564;42.902;25.336;2022-11-20T00:19:09;96626.06;;;14.95;100.00
34297;BME280;20564;42.902;25.336;2022-11-20T00:21:36;96633.84;;;14.97;100.00
34297;BME280;20564;42.902;25.336;2022-11-20T00:24:03;96634.38;;;14.92;100.00
34297;BME280;20564;42.902;25.336;2022-11-20T00:26:31;96632.44;;;14.86;100.00
34297;BME280;20564;42.902;25.336;2022-11-20T00:29:00;96634.38;;;14.92;100.00
34297;BME280;20564;42.902;25.336;2022-11-20T00:31:28;96620.84;;;15.02;100.00
34297;BME280;20564;42.902;25.336;2022-11-20T00:33:55;96635.31;;;14.99;100.00
34297;BME280;20564;42.902;25.336;2022-11-20T00:36:24;96633.03;;;14.96;100.00
34297;BME280;20564;42.902;25.336;2022-11-20T00:38:56;96622.78;;;14.93;100.00
34297;BME280;20564;42.902;25.336;2022-11-20T00:41:25;96626.44;;;14.92;100.00
34297;BME280;20564;42.902;25.336;2022-11-20T00:43:53;96619.13;;;14.94;100.00
34297;BME280;20564;42.902;25.336;2022-11-20T00:46:23;96621.97;;;14.92;100.00
34297;BME280;20564;42.902;25.336;2022-11-20T00:48:50;96626.16;;;15.02;100.00
34297;BME280;20564;42.902;25.336;2022-11-20T00:51:20;96629.16;;;14.99;100.00
34297;BME280;20564;42.902;25.336;2022-11-20T00:53:49;96638.84;;;15.06;100.00
34297;BME280;20564;42.902;25.336;2022-11-20T00:56:18;96642.53;;;15.05;100.00
34297;BME280;20564;42.902;25.336;2022-11-20T00:58:47;96653.56;;;14.94;100.00
34297;BME280;20564;42.902;25.336;2022-11-20T01:01:20;96645.63;;;14.94;100.00
34297;BME280;20564;42.902;25.336;2022-11-20T01:03:49;96649.63;;;14.90;100.00
34297;BME280;20564;42.902;25.336;2022-11-20T01:06:19;96646.97;;;14.90;100.00
34297;BME280;20564;42.902;25.336;2022-11-20T01:08:48;96651.63;;;14.88;100.00
34297;BME280;20564;42.902;25.336;2022-11-20T01:11:21;96639.75;;;14.84;100.00
34297;BME280;20564;42.902;25.336;2022-11-20T01:13:49;96634.56;;;14.90;100.00
34297;BME280;20564;42.902;25.336;2022-11-20T01:16:26;96632.38;;;14.94;100.00
34297;BME280;20564;42.902;25.336;2022-11-20T01:18:56;96631.44;;;15.02;100.00
34297;BME280;20564;42.902;25.336;2022-11-20T01:21:29;96621.97;;;15.07;100.00
34297;BME280;20564;42.902;25.336;2022-11-20T01:23:57;96614.63;;;15.09;100.00
34297;BME280;20564;42.902;25.336;2022-11-20T01:26:27;96593.28;;;15.11;100.00
34297;BME280;20564;42.902;25.336;2022-11-20T01:28:55;96597.91;;;15.24;100.00
34297;BME280;20564;42.902;25.336;2022-11-20T01:31:31;96583.72;;;15.31;100.00
34297;BME280;20564;42.902;25.336;2022-11-20T01:34:04;96580.16;;;15.39;100.00
34297;BME280;20564;42.902;25.336;2022-11-20T01:36:33;96570.19;;;15.41;100.00
34297;BME280;20564;42.902;25.336;2022-11-20T01:39:05;96571.22;;;15.40;100.00
34297;BME280;20564;42.902;25.336;2022-11-20T01:41:33;96574.59;;;15.34;100.00
34297;BME280;20564;42.902;25.336;2022-11-20T01:44:22;96582.28;;;15.29;100.00
34297;BME280;20564;42.902;25.336;2022-11-20T01:46:59;96582.00;;;15.24;100.00
34297;BME280;20564;42.902;25.336;2022-11-20T01:49:39;96588.06;;;15.17;100.00
34297;BME280;20564;42.902;25.336;2022-11-20T01:52:16;96603.41;;;15.07;100.00
34297;BME280;20564;42.902;25.336;2022-11-20T01:54:58;96602.97;;;15.04;100.00
34297;BME280;20564;42.902;25.336;2022-11-20T01:57:28;96600.31;;;14.89;100.00
34297;BME280;20564;42.902;25.336;2022-11-20T02:00:17;96614.38;;;15.04;100.00
34297;BME280;20564;42.902;25.336;2022-11-20T02:02:48;96618.31;;;15.08;100.00
34297;BME280;20564;42.902;25.336;2022-11-20T02:05:19;96609.06;;;15.19;100.00
34297;BME280;20564;42.902;25.336;2022-11-20T02:07:49;96611.38;;;15.22;100.00
34297;BME280;20564;42.902;25.336;2022-11-20T02:10:17;96604.59;;;15.19;100.00
34297;BME280;20564;42.902;25.336;2022-11-20T02:12:45;96611.06;;;15.32;100.00
34297;BME280;20564;42.902;25.336;2022-11-20T02:15:32;96602.03;;;15.41;100.00
34297;BME280;20564;42.902;25.336;2022-11-20T02:17:59;96596.94;;;15.76;100.00
34297;BME280;20564;42.902;25.336;2022-11-20T02:20:27;96609.34;;;15.90;100.00
34297;BME280;20564;42.902;25.336;2022-11-20T02:23:03;96606.97;;;15.95;100.00
34297;BME280;20564;42.902;25.336;2022-11-20T02:25:33;96603.47;;;16.16;100.00
34297;BME280;20564;42.902;25.336;2022-11-20T02:28:03;96597.94;;;16.11;100.00
34297;BME280;20564;42.902;25.336;2022-11-20T02:30:30;96596.81;;;16.20;100.00
34297;BME280;20564;42.902;25.336;2022-11-20T02:32:58;96587.25;;;16.26;100.00
34297;BME280;20564;42.902;25.336;2022-11-20T02:37:53;96594.69;;;16.37;99.40
34297;BME280;20564;42.902;25.336;2022-11-20T02:40:21;96589.00;;;16.40;98.47
34297;BME280;20564;42.902;25.336;2022-11-20T02:42:51;96579.19;;;16.40;98.47
34297;BME280;20564;42.902;25.336;2022-11-20T02:45:18;96571.97;;;16.28;99.55
34297;BME280;20564;42.902;25.336;2022-11-20T02:47:45;96563.53;;;16.24;100.00
34297;BME280;20564;42.902;25.336;2022-11-20T02:50:12;96571.00;;;16.35;99.10
34297;BME280;20564;42.902;25.336;2022-11-20T02:52:39;96574.66;;;16.34;99.61
34297;BME280;20564;42.902;25.336;2022-11-20T02:55:06;96566.06;;;16.32;99.74
34297;BME280;20564;42.902;25.336;2022-11-20T02:57:33;96584.59;;;16.26;99.94
34297;BME280;20564;42.902;25.336;2022-11-20T03:00:00;96590.28;;;16.23;100.00
34297;BME280;20564;42.902;25.336;2022-11-20T03:02:30;96576.94;;;16.16;100.00
34297;BME280;20564;42.902;25.336;2022-11-20T03:04:57;96568.78;;;16.18;100.00
34297;BME280;20564;42.902;25.336;2022-11-20T03:07:24;96572.72;;;16.00;100.00
34297;BME280;20564;42.902;25.336;2022-11-20T03:09:51;96569.75;;;15.88;100.00
34297;BME280;20564;42.902;25.336;2022-11-20T03:12:18;96574.28;;;15.73;100.00
34297;BME280;20564;42.902;25.336;2022-11-20T03:14:45;96568.06;;;15.66;100.00
34297;BME280;20564;42.902;25.336;2022-11-20T03:17:18;96550.78;;;15.55;100.00
34297;BME280;20564;42.902;25.336;2022-11-20T03:19:45;96559.09;;;15.52;100.00
34297;BME280;20564;42.902;25.336;2022-11-20T03:22:12;96562.69;;;15.44;100.00
34297;BME280;20564;42.902;25.336;2022-11-20T03:24:39;96554.84;;;15.36;100.00
34297;BME280;20564;42.902;25.336;2022-11-20T03:27:06;96565.25;;;15.38;100.00
34297;BME280;20564;42.902;25.336;2022-11-20T03:29:33;96541.75;;;15.35;100.00
34297;BME280;20564;42.902;25.336;2022-11-20T03:32:01;96538.56;;;15.39;100.00
34297;BME280;20564;42.902;25.336;2022-11-20T03:34:28;96552.47;;;15.27;100.00
34297;BME280;20564;42.902;25.336;2022-11-20T03:36:55;96544.88;;;15.24;100.00
34297;BME280;20564;42.902;25.336;2022-11-20T03:39:22;96554.03;;;15.36;100.00
34297;BME280;20564;42.902;25.336;2022-11-20T03:41:55;96553.00;;;15.37;100.00
34297;BME280;20564;42.902;25.336;2022-11-20T03:44:30;96558.56;;;15.42;100.00
34297;BME280;20564;42.902;25.336;2022-11-20T03:47:00;96562.81;;;15.36;100.00
34297;BME280;20564;42.902;25.336;2022-11-20T03:49:28;96562.59;;;15.38;100.00
34297;BME280;20564;42.902;25.336;2022-11-20T03:51:55;96582.66;;;15.26;100.00
34297;BME280;20564;42.902;25.336;2022-11-20T03:54:22;96577.47;;;15.17;100.00
34297;BME280;20564;42.902;25.336;2022-11-20T03:56:50;96580.53;;;15.06;100.00
34297;BME280;20564;42.902;25.336;2022-11-20T03:59:17;96584.97;;;14.99;100.00
34297;BME280;20564;42.902;25.336;2022-11-20T04:01:45;96569.31;;;14.89;100.00
34297;BME280;20564;42.902;25.336;2022-11-20T04:04:14;96585.84;;;14.91;100.00
34297;BME280;20564;42.902;25.336;2022-11-20T04:06:42;96593.06;;;14.83;100.00
34297;BME280;20564;42.902;25.336;2022-11-20T04:09:10;96600.44;;;14.73;100.00
34297;BME280;20564;42.902;25.336;2022-11-20T04:11:39;96594.97;;;14.59;100.00
34297;BME280;20564;42.902;25.336;2022-11-20T04:14:13;96593.03;;;14.53;100.00
34297;BME280;20564;42.902;25.336;2022-11-20T04:16:41;96597.09;;;14.41;100.00
34297;BME280;20564;42.902;25.336;2022-11-20T04:19:14;96582.84;;;14.42;100.00
34297;BME280;20564;42.902;25.336;2022-11-20T04:21:43;96589.19;;;14.33;100.00
34297;BME280;20564;42.902;25.336;2022-11-20T04:24:10;96579.47;;;14.48;100.00
34297;BME280;20564;42.902;25.336;2022-11-20T04:26:38;96577.72;;;14.63;100.00
34297;BME280;20564;42.902;25.336;2022-11-20T04:29:06;96566.13;;;14.94;100.00
34297;BME280;20564;42.902;25.336;2022-11-20T04:31:34;96558.97;;;15.24;100.00
34297;BME280;20564;42.902;25.336;2022-11-20T04:34:02;96562.59;;;15.38;100.00
34297;BME280;20564;42.902;25.336;2022-11-20T04:36:31;96571.34;;;15.53;100.00
34297;BME280;20564;42.902;25.336;2022-11-20T04:38:59;96552.47;;;15.78;97.94
34297;BME280;20564;42.902;25.336;2022-11-20T04:41:31;96554.94;;;16.01;96.07
34297;BME280;20564;42.902;25.336;2022-11-20T04:43:59;96556.41;;;16.03;95.91
34297;BME280;20564;42.902;25.336;2022-11-20T04:46:33;96542.25;;;16.18;95.00
34297;BME280;20564;42.902;25.336;2022-11-20T04:49:01;96554.50;;;16.19;95.15
34297;BME280;20564;42.902;25.336;2022-11-20T04:51:27;96550.81;;;16.20;94.21
34297;BME280;20564;42.902;25.336;2022-11-20T04:53:55;96540.63;;;16.23;95.03
34297;BME280;20564;42.902;25.336;2022-11-20T04:56:22;96545.13;;;16.23;94.55
34297;BME280;20564;42.902;25.336;2022-11-20T04:58:49;96544.75;;;16.26;94.60
34297;BME280;20564;42.902;25.336;2022-11-20T05:01:22;96545.63;;;16.33;93.97
34297;BME280;20564;42.902;25.336;2022-11-20T05:03:50;96532.94;;;16.28;94.72
34297;BME280;20564;42.902;25.336;2022-11-20T05:06:18;96552.63;;;16.40;94.52
34297;BME280;20564;42.902;25.336;2022-11-20T05:08:45;96541.84;;;16.42;94.55
34297;BME280;20564;42.902;25.336;2022-11-20T05:11:13;96552.69;;;16.47;92.92
34297;BME280;20564;42.902;25.336;2022-11-20T05:13:40;96540.50;;;16.53;92.85
34297;BME280;20564;42.902;25.336;2022-11-20T05:16:11;96546.75;;;16.45;94.37
34297;BME280;20564;42.902;25.336;2022-11-20T05:18:39;96544.53;;;16.49;93.28
34297;BME280;20564;42.902;25.336;2022-11-20T05:21:06;96549.00;;;16.48;92.81
34297;BME280;20564;42.902;25.336;2022-11-20T05:23:33;96558.94;;;16.61;91.86
34297;BME280;20564;42.902;25.336;2022-11-20T05:26:00;96554.22;;;16.63;92.54
34297;BME280;20564;42.902;25.336;2022-11-20T05:28:28;96563.00;;;16.57;92.18
34297;BME280;20564;42.902;25.336;2022-11-20T05:30:55;96549.28;;;16.53;92.88
34297;BME280;20564;42.902;25.336;2022-11-20T05:33:22;96550.69;;;16.49;92.49
34297;BME280;20564;42.902;25.336;2022-11-20T05:35:48;96546.25;;;16.56;92.33
34297;BME280;20564;42.902;25.336;2022-11-20T05:38:15;96563.00;;;16.57;92.27
34297;BME280;20564;42.902;25.336;2022-11-20T05:40:42;96563.88;;;16.64;91.61
34297;BME280;20564;42.902;25.336;2022-11-20T05:43:09;96555.84;;;16.57;92.25
34297;BME280;20564;42.902;25.336;2022-11-20T05:45:36;96560.13;;;16.58;92.68
34297;BME280;20564;42.902;25.336;2022-11-20T05:48:03;96582.16;;;16.52;91.70
34297;BME280;20564;42.902;25.336;2022-11-20T05:50:30;96569.94;;;16.58;91.21
34297;BME280;20564;42.902;25.336;2022-11-20T05:53:00;96568.97;;;16.66;91.49
34297;BME280;20564;42.902;25.336;2022-11-20T05:55:27;96581.38;;;16.58;91.48
34297;BME280;20564;42.902;25.336;2022-11-20T05:57:54;96587.09;;;16.55;91.94
34297;BME280;20564;42.902;25.336;2022-11-20T06:00:21;96593.19;;;16.49;92.09
34297;BME280;20564;42.902;25.336;2022-11-20T06:02:48;96601.38;;;16.54;91.36
34297;BME280;20564;42.902;25.336;2022-11-20T06:05:15;96605.25;;;16.52;91.67
34297;BME280;20564;42.902;25.336;2022-11-20T06:07:42;96606.31;;;16.57;91.20
34297;BME280;20564;42.902;25.336;2022-11-20T06:10:10;96613.38;;;16.72;91.00
34297;BME280;20564;42.902;25.336;2022-11-20T06:12:37;96606.69;;;16.76;90.83
34297;BME280;20564;42.902;25.336;2022-11-20T06:15:04;96610.84;;;16.85;89.40
34297;BME280;20564;42.902;25.336;2022-11-20T06:17:31;96603.88;;;16.84;88.68
34297;BME280;20564;42.902;25.336;2022-11-20T06:19:57;96611.84;;;16.84;89.46
34297;BME280;20564;42.902;25.336;2022-11-20T06:22:27;96608.06;;;16.93;88.94
34297;BME280;20564;42.902;25.336;2022-11-20T06:24:54;96601.72;;;16.94;88.64
34297;BME280;20564;42.902;25.336;2022-11-20T06:27:20;96608.91;;;17.00;88.69
34297;BME280;20564;42.902;25.336;2022-11-20T06:29:47;96606.09;;;17.08;88.59
34297;BME280;20564;42.902;25.336;2022-11-20T06:32:14;96611.25;;;17.17;87.49
34297;BME280;20564;42.902;25.336;2022-11-20T06:34:41;96609.25;;;17.25;86.85
34297;BME280;20564;42.902;25.336;2022-11-20T06:37:07;96619.06;;;17.25;86.13
34297;BME280;20564;42.902;25.336;2022-11-20T06:39:34;96623.06;;;17.42;85.38
34297;BME280;20564;42.902;25.336;2022-11-20T06:42:01;96628.22;;;17.50;84.74
34297;BME280;20564;42.902;25.336;2022-11-20T06:44:28;96627.59;;;17.48;85.17
34297;BME280;20564;42.902;25.336;2022-11-20T06:46:54;96636.19;;;17.50;84.43
34297;BME280;20564;42.902;25.336;2022-11-20T06:49:21;96642.19;;;17.59;84.53
34297;BME280;20564;42.902;25.336;2022-11-20T06:51:49;96654.91;;;17.64;84.56
34297;BME280;20564;42.902;25.336;2022-11-20T06:54:15;96656.63;;;17.78;83.71
34297;BME280;20564;42.902;25.336;2022-11-20T06:56:45;96650.91;;;17.81;83.49
34297;BME280;20564;42.902;25.336;2022-11-20T06:59:12;96667.81;;;17.73;84.26
34297;BME280;20564;42.902;25.336;2022-11-20T07:01:39;96679.56;;;17.79;85.51
34297;BME280;20564;42.902;25.336;2022-11-20T07:04:06;96677.78;;;17.93;84.12
34297;BME280;20564;42.902;25.336;2022-11-20T07:06:33;96685.38;;;18.02;83.81
34297;BME280;20564;42.902;25.336;2022-11-20T07:09:00;96690.31;;;18.05;83.65
34297;BME280;20564;42.902;25.336;2022-11-20T07:11:26;96688.69;;;18.11;83.03
34297;BME280;20564;42.902;25.336;2022-11-20T07:13:53;96689.91;;;18.08;83.96
34297;BME280;20564;42.902;25.336;2022-11-20T07:16:20;96695.31;;;18.22;83.29
34297;BME280;20564;42.902;25.336;2022-11-20T07:18:47;96684.44;;;18.30;82.93
34297;BME280;20564;42.902;25.336;2022-11-20T07:21:16;96687.94;;;18.30;81.94
34297;BME280;20564;42.902;25.336;2022-11-20T07:23:43;96675.59;;;18.16;82.36
34297;BME280;20564;42.902;25.336;2022-11-20T07:26:10;96668.22;;;18.12;82.94
34297;BME280;20564;42.902;25.336;2022-11-20T07:28:37;96666.97;;;18.07;82.58
34297;BME280;20564;42.902;25.336;2022-11-20T07:31:04;96671.94;;;18.17;82.45
34297;BME280;20564;42.902;25.336;2022-11-20T07:33:31;96669.06;;;18.19;82.17
34297;BME280;20564;42.902;25.336;2022-11-20T07:35:59;96671.72;;;18.19;82.48
34297;BME280;20564;42.902;25.336;2022-11-20T07:38:26;96667.41;;;18.18;82.50
34297;BME280;20564;42.902;25.336;2022-11-20T07:40:54;96661.06;;;18.19;83.06
34297;BME280;20564;42.902;25.336;2022-11-20T07:43:21;96654.13;;;18.31;81.90
34297;BME280;20564;42.902;25.336;2022-11-20T07:45:48;96663.34;;;18.35;82.25
34297;BME280;20564;42.902;25.336;2022-11-20T07:48:15;96654.16;;;18.44;81.89
34297;BME280;20564;42.902;25.336;2022-11-20T07:50:42;96661.34;;;18.50;81.38
34297;BME280;20564;42.902;25.336;2022-11-20T07:53:08;96669.75;;;18.54;79.56
34297;BME280;20564;42.902;25.336;2022-11-20T07:55:35;96689.66;;;18.58;79.79
34297;BME280;20564;42.902;25.336;2022-11-20T07:58:02;96697.41;;;18.53;74.71
34297;BME280;20564;42.902;25.336;2022-11-20T08:00:29;96715.81;;;18.35;72.16
34297;BME280;20564;42.902;25.336;2022-11-20T08:02:56;96709.09;;;17.91;72.93
34297;BME280;20564;42.902;25.336;2022-11-20T08:05:23;96719.00;;;17.69;72.66
34297;BME280;20564;42.902;25.336;2022-11-20T08:07:49;96729.72;;;17.47;73.10
34297;BME280;20564;42.902;25.336;2022-11-20T08:10:16;96722.63;;;17.26;73.43
34297;BME280;20564;42.902;25.336;2022-11-20T08:12:46;96711.00;;;17.06;73.95
34297;BME280;20564;42.902;25.336;2022-11-20T08:15:31;96717.31;;;16.77;73.67
34297;BME280;20564;42.902;25.336;2022-11-20T08:18:02;96716.13;;;16.43;74.75
34297;BME280;20564;42.902;25.336;2022-11-20T08:20:49;96715.84;;;16.17;76.73
34297;BME280;20564;42.902;25.336;2022-11-20T08:23:15;96735.09;;;16.04;76.62
34297;BME280;20564;42.902;25.336;2022-11-20T08:25:42;96728.16;;;15.88;77.94
34297;BME280;20564;42.902;25.336;2022-11-20T08:28:09;96724.69;;;15.73;77.57
34297;BME280;20564;42.902;25.336;2022-11-20T08:30:46;96727.78;;;15.61;78.99
34297;BME280;20564;42.902;25.336;2022-11-20T08:33:13;96723.19;;;15.55;78.12
34297;BME280;20564;42.902;25.336;2022-11-20T08:35:39;96726.88;;;15.54;78.90
34297;BME280;20564;42.902;25.336;2022-11-20T08:38:08;96730.59;;;15.45;79.10
34297;BME280;20564;42.902;25.336;2022-11-20T08:40:35;96718.59;;;15.34;80.05
34297;BME280;20564;42.902;25.336;2022-11-20T08:43:01;96720.44;;;15.34;80.01
34297;BME280;20564;42.902;25.336;2022-11-20T08:45:28;96734.13;;;15.23;80.56
34297;BME280;20564;42.902;25.336;2022-11-20T08:48:00;96724.91;;;15.18;81.14
34297;BME280;20564;42.902;25.336;2022-11-20T08:50:27;96722.59;;;15.15;81.21
34297;BME280;20564;42.902;25.336;2022-11-20T08:52:53;96718.47;;;15.13;81.35
34297;BME280;20564;42.902;25.336;2022-11-20T08:55:20;96714.75;;;15.07;82.37
34297;BME280;20564;42.902;25.336;2022-11-20T08:57:47;96716.72;;;15.05;80.32
34297;BME280;20564;42.902;25.336;2022-11-20T09:00:16;96722.78;;;14.99;81.85
34297;BME280;20564;42.902;25.336;2022-11-20T09:02:43;96723.75;;;14.98;82.88
34297;BME280;20564;42.902;25.336;2022-11-20T09:05:09;96718.44;;;14.98;81.97
34297;BME280;20564;42.902;25.336;2022-11-20T09:07:36;96709.56;;;14.91;81.38
34297;BME280;20564;42.902;25.336;2022-11-20T09:10:03;96701.47;;;14.92;81.93
34297;BME280;20564;42.902;25.336;2022-11-20T09:12:51;96709.88;;;14.96;82.89
34297;BME280;20564;42.902;25.336;2022-11-20T09:15:18;96702.84;;;15.03;82.39
34297;BME280;20564;42.902;25.336;2022-11-20T09:17:55;96711.78;;;15.02;80.45
34297;BME280;20564;42.902;25.336;2022-11-20T09:20:22;96691.41;;;15.03;81.69
34297;BME280;20564;42.902;25.336;2022-11-20T09:22:49;96694.59;;;14.98;81.83
34297;BME280;20564;42.902;25.336;2022-11-20T09:25:16;96668.91;;;14.99;81.82
34297;BME280;20564;42.902;25.336;2022-11-20T09:27:43;96674.31;;;15.05;82.18
34297;BME280;20564;42.902;25.336;2022-11-20T09:30:15;96681.22;;;15.14;81.53
34297;BME280;20564;42.902;25.336;2022-11-20T09:32:42;96687.88;;;15.10;80.04
34297;BME280;20564;42.902;25.336;2022-11-20T09:35:09;96681.84;;;15.16;80.99
34297;BME280;20564;42.902;25.336;2022-11-20T09:37:37;96678.19;;;15.17;79.79
34297;BME280;20564;42.902;25.336;2022-11-20T09:40:04;96670.25;;;15.17;80.21
34297;BME280;20564;42.902;25.336;2022-11-20T09:53:20;96650.66;;;15.48;80.84
34297;BME280;20564;42.902;25.336;2022-11-20T09:55:51;96646.63;;;15.52;79.79
34297;BME280;20564;42.902;25.336;2022-11-20T09:58:22;96645.47;;;15.70;79.27
34297;BME280;20564;42.902;25.336;2022-11-20T10:00:52;96635.84;;;15.83;78.83
34297;BME280;20564;42.902;25.336;2022-11-20T10:06:21;96628.47;;;16.22;77.96
34297;BME280;20564;42.902;25.336;2022-11-20T10:08:59;96619.91;;;16.48;75.26
34297;BME280;20564;42.902;25.336;2022-11-20T10:11:42;96616.50;;;16.54;75.91
34297;BME280;20564;42.902;25.336;2022-11-20T10:22:22;96605.06;;;16.75;75.22
34297;BME280;20564;42.902;25.336;2022-11-20T10:24:55;96605.69;;;16.77;74.64
34297;BME280;20564;42.902;25.336;2022-11-20T10:30:09;96602.47;;;16.88;75.67
34297;BME280;20564;42.902;25.336;2022-11-20T10:32:41;96599.09;;;17.01;75.62
34297;BME280;20564;42.902;25.336;2022-11-20T10:35:22;96587.88;;;17.05;75.54
34297;BME280;20564;42.902;25.336;2022-11-20T10:37:53;96594.06;;;17.13;74.56
34297;BME280;20564;42.902;25.336;2022-11-20T10:43:12;96605.94;;;17.17;74.97
34297;BME280;20564;42.902;25.336;2022-11-20T10:45:44;96595.84;;;17.05;74.62
34297;BME280;20564;42.902;25.336;2022-11-20T10:48:15;96588.69;;;17.06;75.58
34297;BME280;20564;42.902;25.336;2022-11-20T10:50:53;96589.50;;;17.06;73.69
34297;BME280;20564;42.902;25.336;2022-11-20T10:56:02;96593.03;;;16.79;74.21
34297;BME280;20564;42.902;25.336;2022-11-20T10:58:38;96593.28;;;16.62;74.72
34297;BME280;20564;42.902;25.336;2022-11-20T11:01:13;96598.09;;;16.52;75.77
34297;BME280;20564;42.902;25.336;2022-11-20T11:03:41;96597.13;;;16.32;76.82
34297;BME280;20564;42.902;25.336;2022-11-20T11:06:21;96581.31;;;16.24;76.62
34297;BME280;20564;42.902;25.336;2022-11-20T11:08:51;96588.56;;;16.15;77.81
34297;BME280;20564;42.902;25.336;2022-11-20T11:13:46;96585.81;;;16.02;77.64
34297;BME280;20564;42.902;25.336;2022-11-20T11:16:20;96587.38;;;15.96;77.94
34297;BME280;20564;42.902;25.336;2022-11-20T11:18:47;96595.72;;;15.93;78.93
34297;BME280;20564;42.902;25.336;2022-11-20T11:21:19;96582.00;;;15.89;78.27
34297;BME280;20564;42.902;25.336;2022-11-20T11:23:48;96577.69;;;15.88;78.47
34297;BME280;20564;42.902;25.336;2022-11-20T11:26:50;96576.22;;;15.86;78.93
34297;BME280;20564;42.902;25.336;2022-11-20T11:29:17;96571.94;;;15.85;78.84
34297;BME280;20564;42.902;25.336;2022-11-20T11:31:44;96575.34;;;15.79;79.18
34297;BME280;20564;42.902;25.336;2022-11-20T11:34:12;96573.72;;;15.78;79.50
34297;BME280;20564;42.902;25.336;2022-11-20T11:36:39;96584.97;;;15.80;78.74
34297;BME280;20564;42.902;25.336;2022-11-20T11:39:10;96594.03;;;15.71;79.71
34297;BME280;20564;42.902;25.336;2022-11-20T11:41:37;96594.13;;;15.62;79.84
34297;BME280;20564;42.902;25.336;2022-11-20T11:44:15;96597.88;;;15.53;79.12
34297;BME280;20564;42.902;25.336;2022-11-20T11:47:02;96599.47;;;15.48;80.62
34297;BME280;20564;42.902;25.336;2022-11-20T11:49:30;96594.50;;;15.44;80.80
34297;BME280;20564;42.902;25.336;2022-11-20T11:52:16;96581.16;;;15.38;81.28
34297;BME280;20564;42.902;25.336;2022-11-20T12:05:23;96622.59;;;15.09;82.20
34297;BME280;20564;42.902;25.336;2022-11-20T12:08:11;96642.06;;;15.02;82.74
34297;BME280;20564;42.902;25.336;2022-11-20T12:10:42;96641.31;;;14.93;83.05
34297;BME280;20564;42.902;25.336;2022-11-20T12:15:37;96659.94;;;14.70;83.58
34297;BME280;20564;42.902;25.336;2022-11-20T12:18:09;96663.88;;;14.51;84.57
34297;BME280;20564;42.902;25.336;2022-11-20T12:20:41;96667.84;;;14.47;85.37
34297;BME280;20564;42.902;25.336;2022-11-20T12:23:35;96679.16;;;14.41;85.61
34297;BME280;20564;42.902;25.336;2022-11-20T12:25:58;96679.19;;;14.33;85.40
34297;BME280;20564;42.902;25.336;2022-11-20T12:28:34;96683.53;;;14.26;85.53
34297;BME280;20564;42.902;25.336;2022-11-20T12:31:08;96674.03;;;14.16;86.79
34297;BME280;20564;42.902;25.336;2022-11-20T12:38:55;96662.19;;;14.04;87.75
34297;BME280;20564;42.902;25.336;2022-11-20T12:56:03;96679.03;;;13.80;92.69
34297;BME280;20564;42.902;25.336;2022-11-20T13:03:39;96685.50;;;13.69;95.13
34297;BME280;20564;42.902;25.336;2022-11-20T13:06:13;96680.28;;;13.61;94.74
34297;BME280;20564;42.902;25.336;2022-11-20T13:08:41;96680.28;;;13.61;96.18
34297;BME280;20564;42.902;25.336;2022-11-20T13:11:12;96677.91;;;13.66;96.40
34297;BME280;20564;42.902;25.336;2022-11-20T13:13:44;96662.13;;;13.50;99.16
34297;BME280;20564;42.902;25.336;2022-11-20T13:16:17;96664.19;;;13.32;100.00
34297;BME280;20564;42.902;25.336;2022-11-20T13:18:46;96678.41;;;13.14;100.00
34297;BME280;20564;42.902;25.336;2022-11-20T13:21:14;96683.38;;;13.01;100.00
34297;BME280;20564;42.902;25.336;2022-11-20T13:23:41;96677.59;;;12.97;100.00
34297;BME280;20564;42.902;25.336;2022-11-20T13:26:20;96670.84;;;12.95;100.00
34297;BME280;20564;42.902;25.336;2022-11-20T13:28:59;96687.53;;;12.87;100.00
34297;BME280;20564;42.902;25.336;2022-11-20T13:31:34;96674.16;;;12.81;100.00
34297;BME280;20564;42.902;25.336;2022-11-20T13:34:02;96674.19;;;12.72;100.00
34297;BME280;20564;42.902;25.336;2022-11-20T13:36:30;96667.41;;;12.62;100.00
34297;BME280;20564;42.902;25.336;2022-11-20T13:38:59;96687.06;;;12.51;100.00
34297;BME280;20564;42.902;25.336;2022-11-20T13:41:30;96692.34;;;12.51;100.00
34297;BME280;20564;42.902;25.336;2022-11-20T13:46:45;96686.69;;;12.54;100.00
34297;BME280;20564;42.902;25.336;2022-11-20T13:49:21;96687.38;;;12.56;100.00
34297;BME280;20564;42.902;25.336;2022-11-20T13:51:50;96677.81;;;12.47;100.00
34297;BME280;20564;42.902;25.336;2022-11-20T14:00:03;96689.03;;;12.33;100.00
34297;BME280;20564;42.902;25.336;2022-11-20T14:02:32;96691.81;;;12.31;100.00
34297;BME280;20564;42.902;25.336;2022-11-20T14:04:59;96706.00;;;12.38;100.00
34297;BME280;20564;42.902;25.336;2022-11-20T14:07:31;96715.41;;;12.33;100.00
34297;BME280;20564;42.902;25.336;2022-11-20T14:09:59;96720.00;;;12.39;100.00
34297;BME280;20564;42.902;25.336;2022-11-20T14:12:30;96741.13;;;12.39;100.00
34297;BME280;20564;42.902;25.336;2022-11-20T14:14:57;96734.53;;;12.43;100.00
34297;BME280;20564;42.902;25.336;2022-11-20T14:19:55;96746.59;;;12.45;100.00
34297;BME280;20564;42.902;25.336;2022-11-20T14:22:25;96747.75;;;12.51;100.00